Time;durP1;ratioP1;P1;durP2;ratioP2;P2;SDS_P1;SDS_P2;PMS_P1;PMS_P2;Temp;Humidity;BMP_temperature;BMP_pressure;BME280_temperature;BME280_humidity;BME280_pressure;Samples;Min_cycle;Max_cycle;Signal;HPM_P1;HPM_P2
2021/07/11 00:01:10;;;;;;;15.20;10.10;;;13.90;99.90;;;;;;5091591;28;20189;-66
2021/07/11 00:03:39;;;;;;;12.13;10.33;;;13.90;99.90;;;;;;5077207;28;20200;-66
2021/07/11 00:06:08;;;;;;;13.97;9.77;;;13.80;99.90;;;;;;5081306;28;20184;-66
2021/07/11 00:08:38;;;;;;;19.47;11.33;;;13.80;99.90;;;;;;5075553;28;20207;-66
2021/07/11 00:11:07;;;;;;;13.97;10.63;;;13.70;99.90;;;;;;5073116;28;20437;-66
2021/07/11 00:13:44;;;;;;;12.73;10.07;;;13.70;99.90;;;;;;5079085;28;20313;-66
2021/07/11 00:16:12;;;;;;;18.80;11.33;;;13.70;99.90;;;;;;5060414;28;20181;-66
2021/07/11 00:18:41;;;;;;;16.73;11.33;;;13.70;99.90;;;;;;5077186;28;20172;-66
2021/07/11 00:21:10;;;;;;;14.20;10.20;;;13.70;99.90;;;;;;5080514;28;20200;-66
2021/07/11 00:23:39;;;;;;;13.47;10.10;;;13.60;99.90;;;;;;5068709;28;20364;-66
2021/07/11 00:26:07;;;;;;;14.83;10.67;;;13.50;99.90;;;;;;5080018;28;20325;-67
2021/07/11 00:28:36;;;;;;;16.40;10.63;;;13.60;99.90;;;;;;5080107;28;20275;-66
2021/07/11 00:31:04;;;;;;;16.80;11.13;;;13.50;99.90;;;;;;5080587;28;20184;-66
2021/07/11 00:33:32;;;;;;;16.00;10.73;;;13.60;99.90;;;;;;5081214;28;20171;-66
2021/07/11 00:36:01;;;;;;;16.30;11.17;;;13.60;99.90;;;;;;5080617;28;20428;-66
2021/07/11 00:38:31;;;;;;;17.30;11.27;;;13.60;99.90;;;;;;5071012;28;20184;-66
2021/07/11 00:41:00;;;;;;;16.03;10.90;;;13.50;99.90;;;;;;5077402;28;20335;-66
2021/07/11 00:43:28;;;;;;;17.20;11.83;;;13.50;99.90;;;;;;5080192;28;20211;-66
2021/07/11 00:45:57;;;;;;;21.10;13.17;;;13.50;99.90;;;;;;5081891;28;20208;-67
2021/07/11 00:48:25;;;;;;;18.37;12.90;;;13.50;99.90;;;;;;5079771;28;20199;-66
2021/07/11 00:50:56;;;;;;;17.70;13.47;;;13.60;99.90;;;;;;5079492;28;20219;-66
2021/07/11 00:53:25;;;;;;;18.20;12.57;;;13.60;99.90;;;;;;5080905;28;20204;-66
2021/07/11 00:55:55;;;;;;;17.37;12.40;;;13.60;99.90;;;;;;5079457;28;20192;-66
2021/07/11 00:58:23;;;;;;;20.00;12.47;;;13.60;99.90;;;;;;5078542;28;20428;-66
2021/07/11 01:00:58;;;;;;;18.43;12.70;;;13.50;99.90;;;;;;5073481;28;20216;-66
2021/07/11 01:03:31;;;;;;;16.40;11.83;;;13.40;99.90;;;;;;5070248;28;20274;-66
2021/07/11 01:06:02;;;;;;;15.30;11.67;;;13.40;99.90;;;;;;5074065;28;20188;-66
2021/07/11 01:08:44;;;;;;;16.87;12.40;;;13.30;99.90;;;;;;5081418;28;20191;-66
2021/07/11 01:11:17;;;;;;;20.10;13.30;;;13.30;99.90;;;;;;5079820;28;20798;-66
2021/07/11 01:13:46;;;;;;;17.37;12.30;;;13.30;99.90;;;;;;5076855;28;20368;-66
2021/07/11 01:16:20;;;;;;;16.97;13.43;;;13.20;99.90;;;;;;5078345;28;20252;-66
2021/07/11 01:18:50;;;;;;;20.30;14.00;;;13.20;99.90;;;;;;5078800;28;20195;-66
2021/07/11 01:21:22;;;;;;;17.60;13.90;;;13.10;99.90;;;;;;5077278;28;20179;-66
2021/07/11 01:23:57;;;;;;;20.67;13.10;;;13.00;99.90;;;;;;5074876;28;20298;-66
2021/07/11 01:26:29;;;;;;;17.73;12.47;;;13.00;99.90;;;;;;5078322;28;20188;-66
2021/07/11 01:28:59;;;;;;;17.93;13.07;;;13.00;99.90;;;;;;5073214;28;20437;-66
2021/07/11 01:31:28;;;;;;;21.67;13.83;;;12.90;99.90;;;;;;5081159;28;20215;-66
2021/07/11 01:33:58;;;;;;;21.00;15.13;;;13.00;99.90;;;;;;5071956;28;20212;-66
2021/07/11 01:36:27;;;;;;;22.23;14.27;;;13.10;99.90;;;;;;5077186;28;20240;-66
2021/07/11 01:38:56;;;;;;;21.93;14.03;;;13.20;99.90;;;;;;5079999;28;20249;-66
2021/07/11 01:41:27;;;;;;;21.77;13.97;;;13.10;99.90;;;;;;5079286;28;20192;-66
2021/07/11 01:43:57;;;;;;;19.13;13.73;;;13.10;99.90;;;;;;5082024;28;20237;-66
2021/07/11 01:46:27;;;;;;;22.50;13.47;;;13.00;99.90;;;;;;5078066;28;20328;-66
2021/07/11 01:48:59;;;;;;;19.43;13.13;;;12.90;99.90;;;;;;5080539;28;20699;-66
2021/07/11 01:51:28;;;;;;;23.70;13.40;;;12.90;99.90;;;;;;5077455;28;20187;-66
2021/07/11 01:53:57;;;;;;;22.07;13.73;;;12.90;99.90;;;;;;5079843;28;20262;-66
2021/07/11 01:56:26;;;;;;;17.67;12.80;;;12.90;99.90;;;;;;5077942;28;20325;-66
2021/07/11 01:58:56;;;;;;;21.87;13.90;;;12.90;99.90;;;;;;5081353;28;20187;-66
2021/07/11 02:01:24;;;;;;;21.80;13.40;;;12.80;99.90;;;;;;5077422;28;20180;-66
2021/07/11 02:03:53;;;;;;;22.03;13.47;;;12.90;99.90;;;;;;5079394;28;20464;-67
2021/07/11 02:06:21;;;;;;;21.87;12.87;;;13.00;99.90;;;;;;5069841;28;20340;-66
2021/07/11 02:08:50;;;;;;;21.97;13.53;;;13.10;99.90;;;;;;5073437;28;20436;-66
2021/07/11 02:11:19;;;;;;;20.17;13.57;;;13.00;99.90;;;;;;5076040;28;20196;-66
2021/07/11 02:13:51;;;;;;;23.03;14.00;;;13.00;99.90;;;;;;5079739;28;20180;-66
2021/07/11 02:16:28;;;;;;;24.53;14.50;;;13.00;99.90;;;;;;5078735;28;20210;-66
2021/07/11 02:18:59;;;;;;;23.17;15.40;;;13.00;99.90;;;;;;5070859;28;20202;-67
2021/07/11 02:21:29;;;;;;;28.33;16.33;;;13.00;99.90;;;;;;5079883;28;20199;-66
2021/07/11 02:24:01;;;;;;;29.50;16.37;;;13.00;99.90;;;;;;5080270;28;20189;-66
2021/07/11 02:26:31;;;;;;;30.23;15.67;;;13.00;99.90;;;;;;5080562;28;20471;-66
2021/07/11 02:29:00;;;;;;;31.10;16.83;;;13.10;99.90;;;;;;5079004;28;20204;-67
2021/07/11 02:31:30;;;;;;;27.03;15.73;;;13.10;99.90;;;;;;5064996;28;20220;-66
2021/07/11 02:33:59;;;;;;;24.67;15.60;;;13.10;99.90;;;;;;5081425;28;20189;-66
2021/07/11 02:36:30;;;;;;;27.93;15.97;;;13.10;99.90;;;;;;5080233;28;20178;-66
2021/07/11 02:39:04;;;;;;;27.67;15.30;;;13.10;99.90;;;;;;5082313;28;20421;-66
2021/07/11 02:41:34;;;;;;;24.30;14.13;;;13.00;99.90;;;;;;5081697;28;20179;-66
2021/07/11 02:44:06;;;;;;;27.43;15.90;;;13.00;99.90;;;;;;5078927;28;20455;-66
2021/07/11 02:46:39;;;;;;;35.50;16.87;;;12.90;99.90;;;;;;5078110;28;20229;-66
2021/07/11 02:49:13;;;;;;;30.27;16.30;;;12.80;99.90;;;;;;5081936;28;20200;-66
2021/07/11 02:51:44;;;;;;;29.77;14.43;;;12.80;99.90;;;;;;5081554;28;20204;-66
2021/07/11 02:54:17;;;;;;;24.97;14.47;;;12.70;99.90;;;;;;5078908;28;20215;-66
2021/07/11 02:56:49;;;;;;;21.07;14.37;;;12.60;99.90;;;;;;5074415;28;20176;-66
2021/07/11 02:59:20;;;;;;;23.63;14.67;;;12.50;99.90;;;;;;5082015;28;20181;-66
2021/07/11 03:01:51;;;;;;;26.67;14.60;;;12.50;99.90;;;;;;5074320;28;20178;-66
2021/07/11 03:04:21;;;;;;;20.97;13.77;;;12.50;99.90;;;;;;5080683;28;20188;-66
2021/07/11 03:06:50;;;;;;;24.17;15.60;;;12.50;99.90;;;;;;5081139;28;20192;-67
2021/07/11 03:09:18;;;;;;;25.73;15.20;;;12.50;99.90;;;;;;5080630;28;20420;-66
2021/07/11 03:11:47;;;;;;;23.80;14.60;;;12.50;99.90;;;;;;5081477;28;20168;-66
2021/07/11 03:14:17;;;;;;;26.73;15.17;;;12.50;99.90;;;;;;5082494;28;20447;-66
2021/07/11 03:16:53;;;;;;;24.73;14.80;;;12.50;99.90;;;;;;5081801;28;20200;-66
2021/07/11 03:19:23;;;;;;;25.30;14.87;;;12.50;99.90;;;;;;5080419;28;20424;-66
2021/07/11 03:21:53;;;;;;;29.87;15.30;;;12.40;99.90;;;;;;5082101;28;20180;-66
2021/07/11 03:24:23;;;;;;;26.67;15.40;;;12.40;99.90;;;;;;5076736;28;21703;-66
2021/07/11 03:26:54;;;;;;;21.90;14.63;;;12.40;99.90;;;;;;5077397;28;20420;-66
2021/07/11 03:29:29;;;;;;;27.77;15.67;;;12.30;99.90;;;;;;5082100;28;20176;-66
2021/07/11 03:31:59;;;;;;;23.00;14.93;;;12.30;99.90;;;;;;5083590;28;20388;-66
2021/07/11 03:34:29;;;;;;;29.63;16.53;;;12.20;99.90;;;;;;5081100;28;20211;-66
2021/07/11 03:37:00;;;;;;;37.13;18.07;;;12.30;99.90;;;;;;5077103;28;20223;-66
2021/07/11 03:39:37;;;;;;;32.57;17.97;;;12.30;99.90;;;;;;5082173;28;20188;-66
2021/07/11 03:42:07;;;;;;;32.37;18.00;;;12.40;99.90;;;;;;5082207;28;20187;-67
2021/07/11 03:44:37;;;;;;;31.00;18.10;;;12.40;99.90;;;;;;5078898;28;20211;-66
2021/07/11 03:47:10;;;;;;;34.07;18.20;;;12.50;99.90;;;;;;5082142;28;20305;-66
2021/07/11 03:49:40;;;;;;;37.63;19.23;;;12.50;99.90;;;;;;5080156;28;20187;-66
2021/07/11 03:52:11;;;;;;;34.40;18.47;;;12.60;99.90;;;;;;5074121;28;20429;-66
2021/07/11 03:54:40;;;;;;;34.03;18.50;;;12.60;99.90;;;;;;5078713;28;20261;-66
2021/07/11 03:57:14;;;;;;;38.63;18.67;;;12.60;99.90;;;;;;5069627;28;20468;-66
2021/07/11 03:59:45;;;;;;;30.13;17.70;;;12.60;99.90;;;;;;5078993;28;20192;-66
2021/07/11 04:02:17;;;;;;;30.40;16.47;;;12.60;99.90;;;;;;5079362;28;20185;-66
2021/07/11 04:04:47;;;;;;;30.33;17.87;;;12.60;99.90;;;;;;5079377;28;20328;-66
2021/07/11 04:07:20;;;;;;;29.17;17.20;;;12.60;99.90;;;;;;5081862;28;20702;-66
2021/07/11 04:09:52;;;;;;;31.30;16.77;;;12.60;99.90;;;;;;5071700;28;20222;-66
2021/07/11 04:12:46;;;;;;;32.90;16.97;;;12.60;99.90;;;;;;5078611;28;20196;-66
2021/07/11 04:15:16;;;;;;;29.93;16.47;;;12.60;99.90;;;;;;5081814;28;20218;-66
2021/07/11 04:18:27;;;;;;;31.20;17.60;;;12.60;99.90;;;;;;5062574;28;20219;-66
2021/07/11 04:21:00;;;;;;;30.83;17.27;;;12.60;99.90;;;;;;5080077;28;20188;-67
2021/07/11 04:23:34;;;;;;;33.37;17.50;;;12.60;99.90;;;;;;5077076;28;20185;-66
2021/07/11 04:26:03;;;;;;;34.73;18.37;;;12.60;99.90;;;;;;5070352;28;20225;-66
2021/07/11 04:28:34;;;;;;;35.17;17.37;;;12.60;99.90;;;;;;5072451;28;20180;-66
2021/07/11 04:31:05;;;;;;;32.93;17.47;;;12.60;99.90;;;;;;5081185;28;20249;-66
2021/07/11 04:33:35;;;;;;;39.57;18.50;;;12.60;99.90;;;;;;5079532;28;20203;-66
2021/07/11 04:36:07;;;;;;;31.00;18.17;;;12.70;99.90;;;;;;5078849;28;20212;-66
2021/07/11 04:38:36;;;;;;;31.83;17.47;;;12.70;99.90;;;;;;5081466;28;20176;-66
2021/07/11 04:41:05;;;;;;;34.07;17.73;;;12.70;99.90;;;;;;5080532;28;20183;-66
2021/07/11 04:43:33;;;;;;;30.77;16.57;;;12.70;99.90;;;;;;5080915;28;20187;-66
2021/07/11 04:46:02;;;;;;;28.97;16.90;;;12.80;99.90;;;;;;5071347;28;20185;-66
2021/07/11 04:48:31;;;;;;;28.53;16.87;;;12.90;99.90;;;;;;5079738;28;20192;-66
2021/07/11 04:51:01;;;;;;;30.90;17.17;;;12.90;99.90;;;;;;5077725;28;20259;-66
2021/07/11 04:53:29;;;;;;;38.73;18.43;;;13.00;99.90;;;;;;5080662;28;20386;-66
2021/07/11 04:55:58;;;;;;;25.80;17.17;;;13.10;99.90;;;;;;5079908;28;20224;-66
2021/07/11 04:58:26;;;;;;;29.00;16.70;;;13.20;99.90;;;;;;5078409;28;20203;-67
2021/07/11 05:00:55;;;;;;;33.73;17.67;;;13.30;99.90;;;;;;5079745;28;20180;-66
2021/07/11 05:03:23;;;;;;;30.17;17.10;;;13.40;99.90;;;;;;5080617;28;20200;-66
2021/07/11 05:05:51;;;;;;;34.77;18.07;;;13.50;99.90;;;;;;5075062;28;20413;-66
2021/07/11 05:08:21;;;;;;;30.20;16.27;;;13.50;99.90;;;;;;5079890;28;20518;-66
2021/07/11 05:10:49;;;;;;;25.90;15.87;;;13.60;99.90;;;;;;5079768;28;20176;-67
2021/07/11 05:13:17;;;;;;;28.03;15.83;;;13.70;99.90;;;;;;5077608;28;20470;-66
2021/07/11 05:15:46;;;;;;;26.23;16.07;;;13.80;99.90;;;;;;5073310;28;20207;-66
2021/07/11 05:18:14;;;;;;;29.03;15.83;;;13.90;99.90;;;;;;5078783;28;20173;-66
2021/07/11 05:20:43;;;;;;;23.33;14.83;;;14.00;99.90;;;;;;5079190;28;20332;-67
2021/07/11 05:23:12;;;;;;;20.73;13.77;;;14.00;99.90;;;;;;5078651;28;20341;-67
2021/07/11 05:25:41;;;;;;;26.03;14.87;;;14.10;99.90;;;;;;5079214;28;20191;-66
2021/07/11 05:28:10;;;;;;;23.93;14.23;;;14.20;99.90;;;;;;5078800;28;20234;-66
2021/07/11 05:30:38;;;;;;;19.73;13.80;;;14.30;99.90;;;;;;5075303;28;20475;-66
2021/07/11 05:33:07;;;;;;;23.83;13.83;;;14.30;99.90;;;;;;5077823;28;20312;-66
2021/07/11 05:35:35;;;;;;;24.60;15.00;;;14.40;99.90;;;;;;5076090;28;20187;-66
2021/07/11 05:38:04;;;;;;;20.63;13.17;;;14.60;99.90;;;;;;5076933;28;20188;-66
2021/07/11 05:40:32;;;;;;;18.90;12.97;;;14.80;99.90;;;;;;5080752;28;20180;-66
2021/07/11 05:43:02;;;;;;;18.83;12.10;;;14.80;99.90;;;;;;5079007;28;20180;-66
2021/07/11 05:45:31;;;;;;;19.83;12.73;;;14.90;99.90;;;;;;5080572;28;20278;-66
2021/07/11 05:47:59;;;;;;;17.80;12.30;;;14.90;99.90;;;;;;5078888;28;20185;-66
2021/07/11 05:50:27;;;;;;;21.60;12.97;;;15.00;99.90;;;;;;5076694;28;20217;-66
2021/07/11 05:52:56;;;;;;;19.63;12.40;;;15.10;99.90;;;;;;5079371;28;20433;-66
2021/07/11 05:55:24;;;;;;;22.50;13.20;;;15.20;99.90;;;;;;5077421;28;20193;-66
2021/07/11 05:57:52;;;;;;;20.10;12.40;;;15.50;99.90;;;;;;5073225;28;20211;-66
2021/07/11 06:00:22;;;;;;;24.77;13.73;;;15.80;99.90;;;;;;5079347;28;20176;-66
2021/07/11 06:02:50;;;;;;;20.90;12.90;;;16.10;99.90;;;;;;5080707;28;20467;-66
2021/07/11 06:05:19;;;;;;;22.23;13.83;;;16.50;99.90;;;;;;5078963;28;20184;-66
2021/07/11 06:07:47;;;;;;;20.27;12.57;;;16.50;99.90;;;;;;5077951;28;20185;-66
2021/07/11 06:10:16;;;;;;;20.60;13.57;;;16.60;99.90;;;;;;5079872;28;20418;-66
2021/07/11 06:12:45;;;;;;;18.47;13.23;;;16.50;99.90;;;;;;5075782;28;20314;-66
2021/07/11 06:15:14;;;;;;;18.83;12.37;;;16.60;99.90;;;;;;5076222;28;20183;-66
2021/07/11 06:17:43;;;;;;;14.17;10.77;;;16.80;99.90;;;;;;5079673;28;20265;-66
2021/07/11 06:20:13;;;;;;;19.97;12.50;;;17.00;99.90;;;;;;5077294;28;20210;-66
2021/07/11 06:22:41;;;;;;;14.37;11.00;;;17.40;99.90;;;;;;5077048;28;20199;-67
2021/07/11 06:25:11;;;;;;;14.47;9.47;;;17.90;99.90;;;;;;5067952;28;20203;-67
2021/07/11 06:27:41;;;;;;;13.27;10.57;;;18.30;99.90;;;;;;5075499;28;20199;-67
2021/07/11 06:30:11;;;;;;;14.80;10.50;;;18.60;99.90;;;;;;5076047;28;20235;-66
2021/07/11 06:32:41;;;;;;;13.57;10.87;;;18.90;99.90;;;;;;5076445;28;20242;-67
2021/07/11 06:35:14;;;;;;;12.13;10.07;;;19.00;99.90;;;;;;5080040;28;20188;-66
2021/07/11 06:37:45;;;;;;;16.60;11.40;;;19.10;99.90;;;;;;5077402;28;20221;-66
2021/07/11 06:40:15;;;;;;;13.07;10.47;;;19.20;99.90;;;;;;5078398;28;20181;-66
2021/07/11 06:42:43;;;;;;;13.23;9.70;;;19.60;99.90;;;;;;5078139;28;20215;-66
2021/07/11 06:45:16;;;;;;;11.20;9.53;;;19.30;99.90;;;;;;5079519;28;20180;-68
2021/07/11 06:47:45;;;;;;;13.63;10.40;;;19.00;99.90;;;;;;5073851;28;20180;-66
2021/07/11 06:50:16;;;;;;;12.93;10.50;;;18.70;99.90;;;;;;5078497;28;20467;-66
2021/07/11 06:52:48;;;;;;;12.87;10.20;;;18.20;99.90;;;;;;5075994;28;20191;-66
2021/07/11 06:55:16;;;;;;;10.50;9.33;;;18.20;99.90;;;;;;5079872;28;20207;-66
2021/07/11 06:57:44;;;;;;;10.03;8.80;;;18.80;99.90;;;;;;5077908;28;20211;-66
2021/07/11 07:00:15;;;;;;;11.63;9.50;;;19.20;99.90;;;;;;5074903;28;20189;-66
2021/07/11 07:02:43;;;;;;;11.23;9.50;;;19.20;99.90;;;;;;5076995;28;20182;-66
2021/07/11 07:05:13;;;;;;;10.97;9.40;;;19.20;99.90;;;;;;5077511;28;20185;-66
2021/07/11 07:07:42;;;;;;;12.30;8.97;;;19.10;99.90;;;;;;5078622;28;20317;-66
2021/07/11 07:10:13;;;;;;;12.37;9.30;;;19.20;99.90;;;;;;5081916;28;20172;-70
2021/07/11 07:12:42;;;;;;;9.97;8.97;;;19.40;99.90;;;;;;5082113;28;20375;-70
2021/07/11 07:15:13;;;;;;;11.17;8.30;;;19.60;99.90;;;;;;5079589;28;20187;-69
2021/07/11 07:17:41;;;;;;;9.93;8.07;;;19.60;99.90;;;;;;5081805;28;20209;-69
2021/07/11 07:20:11;;;;;;;14.93;10.33;;;19.60;99.90;;;;;;5079949;28;20415;-69
2021/07/11 07:22:42;;;;;;;14.60;10.90;;;19.20;99.90;;;;;;5083647;28;20379;-70
2021/07/11 07:25:13;;;;;;;14.30;11.87;;;19.00;99.90;;;;;;5080704;28;20180;-69
2021/07/11 07:27:43;;;;;;;12.70;10.67;;;18.80;99.90;;;;;;5079266;28;20199;-69
2021/07/11 07:30:15;;;;;;;13.47;10.87;;;18.80;99.90;;;;;;5078683;28;20176;-69
2021/07/11 07:32:45;;;;;;;17.20;11.43;;;18.70;99.90;;;;;;5077919;28;20468;-69
2021/07/11 07:35:13;;;;;;;13.93;11.70;;;18.70;99.90;;;;;;5074855;28;20519;-69
2021/07/11 07:37:45;;;;;;;11.27;10.07;;;18.70;99.90;;;;;;5081914;28;20207;-69
2021/07/11 07:40:14;;;;;;;13.27;9.43;;;19.10;99.90;;;;;;5075980;28;20177;-69
2021/07/11 07:42:42;;;;;;;9.80;8.80;;;19.70;99.90;;;;;;5075202;28;20499;-69
2021/07/11 07:45:11;;;;;;;12.30;7.10;;;20.60;99.90;;;;;;5072869;28;20180;-69
2021/07/11 07:47:40;;;;;;;8.27;6.60;;;21.90;99.90;;;;;;5078783;28;20222;-70
2021/07/11 07:50:11;;;;;;;7.10;6.47;;;23.20;99.90;;;;;;5092792;28;20172;-69
2021/07/11 07:52:40;;;;;;;7.00;6.40;;;24.10;99.90;;;;;;5078146;28;20192;-70
2021/07/11 07:55:11;;;;;;;7.32;5.82;;;24.50;99.90;;;;;;5076444;28;20186;-69
2021/07/11 07:57:40;;;;;;;5.75;5.25;;;25.00;99.90;;;;;;5073185;28;20313;-69
2021/07/11 08:00:11;;;;;;;5.78;5.28;;;24.20;99.90;;;;;;5076274;28;20177;-69
2021/07/11 08:02:39;;;;;;;10.05;6.35;;;23.60;99.90;;;;;;5077066;28;20194;-69
2021/07/11 08:05:08;;;;;;;6.53;5.93;;;22.90;99.90;;;;;;5075860;28;20377;-69
2021/07/11 08:07:37;;;;;;;6.40;5.90;;;22.40;99.90;;;;;;5079309;28;20191;-69
2021/07/11 08:10:07;;;;;;;6.53;5.60;;;22.00;99.90;;;;;;5076064;28;20189;-69
2021/07/11 08:12:37;;;;;;;5.60;5.20;;;21.80;99.90;;;;;;5077823;28;20226;-69
2021/07/11 08:15:07;;;;;;;6.20;5.70;;;22.30;99.90;;;;;;5075715;28;20420;-69
2021/07/11 08:17:36;;;;;;;6.00;5.33;;;22.40;99.90;;;;;;5075068;28;20227;-69
2021/07/11 08:20:06;;;;;;;5.97;5.47;;;22.30;99.90;;;;;;5070693;28;20188;-69
2021/07/11 08:22:34;;;;;;;6.20;5.70;;;22.10;99.90;;;;;;5076525;28;20478;-69
2021/07/11 08:25:03;;;;;;;6.03;5.43;;;22.50;99.90;;;;;;5076402;28;20178;-69
2021/07/11 08:27:31;;;;;;;5.63;5.13;;;23.40;99.90;;;;;;5075573;28;20196;-69
2021/07/11 08:30:01;;;;;;;6.65;6.00;;;24.60;99.90;;;;;;5076650;28;20339;-69
2021/07/11 08:32:29;;;;;;;8.68;6.07;;;25.40;99.90;;;;;;5074481;28;20216;-69
2021/07/11 08:34:57;;;;;;;5.82;5.32;;;25.90;99.90;;;;;;5076638;28;20360;-70
2021/07/11 08:37:26;;;;;;;5.68;5.13;;;26.30;99.90;;;;;;5074691;28;20312;-68
2021/07/11 08:39:55;;;;;;;5.97;5.40;;;25.90;99.90;;;;;;5074046;28;20197;-69
2021/07/11 08:42:24;;;;;;;5.43;5.13;;;25.10;99.90;;;;;;5074202;28;20182;-67
2021/07/11 08:44:53;;;;;;;5.03;4.72;;;23.70;99.90;;;;;;5076270;28;20186;-69
2021/07/11 08:47:23;;;;;;;5.90;5.50;;;22.70;99.90;;;;;;5079897;28;20188;-69
2021/07/11 08:49:51;;;;;;;5.47;5.07;;;21.90;99.90;;;;;;5075634;28;20224;-68
2021/07/11 08:52:20;;;;;;;5.87;5.37;;;21.30;99.90;;;;;;5081150;28;20383;-68
2021/07/11 08:54:49;;;;;;;5.67;5.03;;;20.90;99.90;;;;;;5073837;28;20469;-68
2021/07/11 08:57:17;;;;;;;5.90;5.50;;;20.90;99.90;;;;;;5078674;28;20219;-68
2021/07/11 08:59:45;;;;;;;6.30;5.80;;;20.80;99.90;;;;;;5080755;28;20181;-68
2021/07/11 09:02:14;;;;;;;5.83;5.30;;;20.60;99.90;;;;;;5091595;28;20180;-68
2021/07/11 09:04:45;;;;;;;6.00;5.50;;;20.40;99.90;;;;;;5077762;28;20187;-68
2021/07/11 09:07:18;;;;;;;5.43;5.03;;;20.30;99.90;;;;;;5075663;28;20205;-68
2021/07/11 09:09:53;;;;;;;5.97;5.60;;;20.70;99.90;;;;;;5078265;28;20176;-68
2021/07/11 09:12:22;;;;;;;6.27;5.83;;;21.20;99.90;;;;;;5075265;28;20192;-67
2021/07/11 09:15:00;;;;;;;6.53;5.37;;;21.20;99.90;;;;;;5076026;28;20188;-68
2021/07/11 09:17:33;;;;;;;4.67;4.47;;;21.10;99.90;;;;;;5076605;28;20283;-68
2021/07/11 09:20:07;;;;;;;5.03;4.77;;;21.00;99.90;;;;;;5072899;28;20196;-68
2021/07/11 09:22:36;;;;;;;4.90;4.50;;;20.70;99.90;;;;;;5077118;28;20179;-68
2021/07/11 09:25:05;;;;;;;5.13;4.83;;;20.20;99.90;;;;;;5071626;28;20208;-68
2021/07/11 09:27:36;;;;;;;5.03;4.60;;;20.10;99.90;;;;;;5074647;28;20337;-68
2021/07/11 09:30:07;;;;;;;5.43;5.13;;;20.30;99.90;;;;;;5074465;28;20180;-68
2021/07/11 09:32:41;;;;;;;4.73;4.43;;;20.40;99.90;;;;;;5071462;28;20383;-68
2021/07/11 09:35:13;;;;;;;4.77;4.47;;;20.30;99.90;;;;;;5080189;28;20184;-68
2021/07/11 09:37:43;;;;;;;4.50;4.30;;;20.10;99.90;;;;;;5080921;28;20192;-67
2021/07/11 09:40:14;;;;;;;5.00;4.47;;;20.00;99.90;;;;;;5082101;28;20180;-68
2021/07/11 09:42:45;;;;;;;4.50;4.20;;;19.80;99.90;;;;;;5080676;28;20336;-67
2021/07/11 09:45:18;;;;;;;3.83;3.63;;;19.80;99.90;;;;;;5081412;28;20172;-68
2021/07/11 09:47:48;;;;;;;4.03;3.73;;;19.80;99.90;;;;;;5081187;28;20420;-68
2021/07/11 09:50:21;;;;;;;4.23;4.03;;;19.80;99.90;;;;;;5082032;28;20474;-68
2021/07/11 09:52:53;;;;;;;3.37;3.27;;;20.20;99.90;;;;;;5075140;28;20261;-67
2021/07/11 09:55:23;;;;;;;3.20;3.00;;;20.60;99.90;;;;;;5081563;28;20192;-68
2021/07/11 09:57:53;;;;;;;3.03;2.80;;;20.60;99.90;;;;;;5081063;28;20503;-67
2021/07/11 10:00:24;;;;;;;3.23;3.10;;;20.60;99.90;;;;;;5082108;28;20211;-68
2021/07/11 10:02:55;;;;;;;3.00;2.80;;;20.70;99.90;;;;;;5080953;28;20184;-67
2021/07/11 10:05:26;;;;;;;2.97;2.70;;;21.10;99.90;;;;;;5079898;28;20305;-68
2021/07/11 10:07:55;;;;;;;3.43;2.33;;;21.20;99.90;;;;;;5078530;28;20188;-68
2021/07/11 10:10:25;;;;;;;2.50;2.40;;;21.10;99.90;;;;;;5076047;28;20446;-68
2021/07/11 10:12:55;;;;;;;3.63;3.33;;;21.10;99.90;;;;;;5077973;28;20333;-68
2021/07/11 10:15:25;;;;;;;3.90;3.00;;;20.90;99.90;;;;;;5080108;28;20199;-68
2021/07/11 10:18:00;;;;;;;3.43;3.23;;;20.70;99.90;;;;;;5074919;28;20184;-68
2021/07/11 10:20:34;;;;;;;3.10;2.90;;;20.70;99.90;;;;;;5073449;28;20493;-67
2021/07/11 10:23:05;;;;;;;3.30;3.10;;;20.70;99.90;;;;;;5076833;28;20182;-68
2021/07/11 10:25:34;;;;;;;2.90;2.80;;;21.10;99.90;;;;;;5072803;28;20173;-68
2021/07/11 10:28:09;;;;;;;2.50;2.30;;;22.20;99.90;;;;;;5077711;28;20178;-68
2021/07/11 10:30:39;;;;;;;2.70;2.60;;;22.70;99.90;;;;;;5073234;28;20182;-69
2021/07/11 10:33:10;;;;;;;2.50;2.40;;;23.10;99.90;;;;;;5076459;28;20246;-69
2021/07/11 10:35:52;;;;;;;2.63;2.47;;;23.50;99.90;;;;;;5075435;28;20180;-68
2021/07/11 10:38:29;;;;;;;2.67;2.47;;;24.10;99.90;;;;;;5077517;28;20302;-69
2021/07/11 10:41:09;;;;;;;2.30;2.10;;;24.90;99.90;;;;;;5078609;28;20184;-68
2021/07/11 10:43:38;;;;;;;2.63;2.40;;;25.90;99.90;;;;;;5080720;28;20187;-68
2021/07/11 10:46:07;;;;;;;5.05;4.63;;;25.90;99.90;;;;;;5079870;28;20456;-68
2021/07/11 10:48:36;;;;;;;11.83;9.20;;;25.00;99.90;;;;;;5080460;28;20180;-67
2021/07/11 10:51:07;;;;;;;3.00;2.90;;;24.40;99.90;;;;;;5082636;28;20180;-68
2021/07/11 10:53:37;;;;;;;2.50;2.10;;;24.50;99.90;;;;;;5084713;28;20189;-68
2021/07/11 10:56:06;;;;;;;1.83;1.73;;;24.70;99.90;;;;;;5081650;28;20187;-68
2021/07/11 10:58:46;;;;;;;3.00;2.20;;;24.60;99.90;;;;;;5080997;28;20208;-68
2021/07/11 11:01:19;;;;;;;2.60;2.50;;;24.40;99.90;;;;;;5080717;28;20192;-68
2021/07/11 11:03:49;;;;;;;1.90;1.90;;;24.10;99.90;;;;;;5078821;28;20219;-68
2021/07/11 11:06:20;;;;;;;1.87;1.87;;;24.50;99.90;;;;;;5073184;28;20188;-68
2021/07/11 11:08:49;;;;;;;1.63;1.53;;;25.10;99.90;;;;;;5075597;28;20473;-68
2021/07/11 11:11:17;;;;;;;2.00;2.00;;;25.30;99.90;;;;;;5080171;28;20445;-68
2021/07/11 11:13:46;;;;;;;2.93;1.50;;;24.70;99.90;;;;;;5083013;28;20343;-68
2021/07/11 11:16:17;;;;;;;1.73;1.73;;;24.30;99.90;;;;;;5081191;28;20214;-68
2021/07/11 11:18:52;;;;;;;2.47;2.37;;;23.80;99.90;;;;;;5081839;28;20215;-68
2021/07/11 11:21:23;;;;;;;2.00;2.00;;;23.50;99.90;;;;;;5083078;28;20216;-68
2021/07/11 11:23:54;;;;;;;2.33;2.20;;;23.40;99.90;;;;;;5083755;28;20183;-68
2021/07/11 11:26:25;;;;;;;2.60;2.10;;;23.30;99.90;;;;;;5083079;28;20324;-66
2021/07/11 11:28:56;;;;;;;4.37;2.13;;;23.50;99.90;;;;;;5084008;28;20194;-66
2021/07/11 11:31:26;;;;;;;2.10;1.87;;;23.50;99.90;;;;;;5081357;28;20186;-66
2021/07/11 11:34:00;;;;;;;3.20;2.20;;;23.50;99.90;;;;;;5080151;28;20257;-66
2021/07/11 11:36:32;;;;;;;2.10;2.10;;;23.40;99.90;;;;;;5082014;28;20319;-66
2021/07/11 11:39:05;;;;;;;3.53;2.70;;;23.40;99.90;;;;;;5081198;28;20212;-66
2021/07/11 11:41:34;;;;;;;3.13;2.80;;;23.40;99.90;;;;;;5080327;28;20182;-67
2021/07/11 11:44:13;;;;;;;2.93;2.83;;;23.40;99.90;;;;;;5082838;28;20332;-66
2021/07/11 11:46:44;;;;;;;2.83;2.63;;;23.50;99.90;;;;;;5082613;28;20185;-66
2021/07/11 11:49:15;;;;;;;2.73;2.53;;;23.60;99.90;;;;;;5079750;28;20190;-66
2021/07/11 11:51:47;;;;;;;2.30;2.20;;;23.20;99.90;;;;;;5079112;28;20542;-66
2021/07/11 11:54:26;;;;;;;2.77;2.43;;;23.00;99.90;;;;;;5081692;28;20188;-66
2021/07/11 11:56:55;;;;;;;2.67;2.47;;;23.00;99.90;;;;;;5078788;28;20192;-66
2021/07/11 11:59:25;;;;;;;3.13;2.90;;;22.70;99.90;;;;;;5077002;28;20225;-66
2021/07/11 12:01:57;;;;;;;3.80;3.50;;;22.50;99.90;;;;;;5075605;28;20188;-66
2021/07/11 12:04:29;;;;;;;3.90;3.30;;;22.40;99.90;;;;;;5079038;28;20180;-66
2021/07/11 12:07:00;;;;;;;3.70;3.50;;;22.60;99.90;;;;;;5075006;28;20195;-66
2021/07/11 12:09:31;;;;;;;3.30;3.10;;;22.90;99.90;;;;;;5078704;28;20192;-66
2021/07/11 12:12:01;;;;;;;3.47;3.17;;;23.10;99.90;;;;;;5079213;28;20292;-67
2021/07/11 12:14:33;;;;;;;3.87;3.63;;;23.30;99.90;;;;;;5079164;28;20479;-66
2021/07/11 12:17:03;;;;;;;4.10;3.90;;;23.00;99.90;;;;;;5071060;28;20177;-66
2021/07/11 12:19:43;;;;;;;4.13;3.80;;;22.90;99.90;;;;;;5077328;28;20255;-66
2021/07/11 12:22:17;;;;;;;4.37;3.87;;;23.20;99.90;;;;;;5073047;28;20183;-66
2021/07/11 12:24:48;;;;;;;4.00;3.80;;;23.40;99.90;;;;;;5074757;28;20180;-66
2021/07/11 12:27:21;;;;;;;4.40;4.10;;;23.30;99.90;;;;;;5072729;28;20177;-66
2021/07/11 12:29:50;;;;;;;3.57;3.37;;;23.60;99.90;;;;;;5073570;28;20201;-66
2021/07/11 12:32:18;;;;;;;3.80;3.60;;;23.80;99.90;;;;;;5075668;28;20230;-66
2021/07/11 12:34:57;;;;;;;3.50;3.30;;;24.00;99.90;;;;;;5078594;28;20184;-66
2021/07/11 12:37:26;;;;;;;3.50;3.30;;;24.00;99.90;;;;;;5075948;28;20564;-66
2021/07/11 12:39:55;;;;;;;3.50;3.30;;;23.60;99.90;;;;;;5070975;28;20211;-66
2021/07/11 12:42:23;;;;;;;3.30;3.03;;;23.50;99.90;;;;;;5076364;28;20243;-66
2021/07/11 12:44:52;;;;;;;3.23;3.00;;;23.30;99.90;;;;;;5074999;28;20291;-66
2021/07/11 12:47:21;;;;;;;3.03;2.83;;;23.10;99.90;;;;;;5074868;28;20242;-67
2021/07/11 12:49:51;;;;;;;3.30;3.10;;;23.20;99.90;;;;;;5074635;28;20181;-65
2021/07/11 12:52:20;;;;;;;3.20;3.00;;;23.00;99.90;;;;;;5076038;28;20185;-66